sensor_id;sensor_type;location;lat;lon;timestamp;temperature;humidity
31799;DHT22;18374;51.136;3.502;2023-03-15T00:02:01;3.70;99.90
31799;DHT22;18374;51.136;3.502;2023-03-15T00:04:28;3.60;99.90
31799;DHT22;18374;51.136;3.502;2023-03-15T00:06:58;3.50;99.90
31799;DHT22;18374;51.136;3.502;2023-03-15T00:09:26;3.40;99.90
31799;DHT22;18374;51.136;3.502;2023-03-15T00:11:54;3.50;99.90
31799;DHT22;18374;51.136;3.502;2023-03-15T00:14:22;3.50;99.90
31799;DHT22;18374;51.136;3.502;2023-03-15T00:16:50;3.50;99.90
31799;DHT22;18374;51.136;3.502;2023-03-15T00:21:45;3.50;99.90
31799;DHT22;18374;51.136;3.502;2023-03-15T00:24:13;3.50;99.90
31799;DHT22;18374;51.136;3.502;2023-03-15T00:26:41;3.50;99.90
31799;DHT22;18374;51.136;3.502;2023-03-15T00:29:08;3.60;99.90
31799;DHT22;18374;51.136;3.502;2023-03-15T00:31:36;3.50;99.90
31799;DHT22;18374;51.136;3.502;2023-03-15T00:34:04;3.50;99.90
31799;DHT22;18374;51.136;3.502;2023-03-15T00:36:32;3.50;99.90
31799;DHT22;18374;51.136;3.502;2023-03-15T00:38:59;3.50;99.90
31799;DHT22;18374;51.136;3.502;2023-03-15T00:41:33;3.30;99.90
31799;DHT22;18374;51.136;3.502;2023-03-15T00:44:01;3.30;99.90
31799;DHT22;18374;51.136;3.502;2023-03-15T00:46:30;3.30;99.90
31799;DHT22;18374;51.136;3.502;2023-03-15T00:48:58;3.30;99.90
31799;DHT22;18374;51.136;3.502;2023-03-15T00:51:26;3.30;99.90
31799;DHT22;18374;51.136;3.502;2023-03-15T00:53:53;3.30;99.90
31799;DHT22;18374;51.136;3.502;2023-03-15T00:56:25;3.30;99.90
31799;DHT22;18374;51.136;3.502;2023-03-15T00:58:54;3.40;99.90
31799;DHT22;18374;51.136;3.502;2023-03-15T01:01:24;3.50;99.90
31799;DHT22;18374;51.136;3.502;2023-03-15T01:03:54;3.50;99.90
31799;DHT22;18374;51.136;3.502;2023-03-15T01:06:26;3.40;99.90
31799;DHT22;18374;51.136;3.502;2023-03-15T01:08:55;3.40;99.90
31799;DHT22;18374;51.136;3.502;2023-03-15T01:11:25;3.40;99.90
31799;DHT22;18374;51.136;3.502;2023-03-15T01:13:56;3.40;99.90
31799;DHT22;18374;51.136;3.502;2023-03-15T01:16:26;3.40;99.90
31799;DHT22;18374;51.136;3.502;2023-03-15T01:18:55;3.40;99.90
31799;DHT22;18374;51.136;3.502;2023-03-15T01:21:24;3.40;99.90
31799;DHT22;18374;51.136;3.502;2023-03-15T01:23:53;3.50;99.90
31799;DHT22;18374;51.136;3.502;2023-03-15T01:26:21;3.50;99.90
31799;DHT22;18374;51.136;3.502;2023-03-15T01:28:49;3.50;99.90
31799;DHT22;18374;51.136;3.502;2023-03-15T01:31:24;3.40;99.90
31799;DHT22;18374;51.136;3.502;2023-03-15T01:33:53;3.50;99.90
31799;DHT22;18374;51.136;3.502;2023-03-15T01:36:21;3.50;99.90
31799;DHT22;18374;51.136;3.502;2023-03-15T01:38:50;3.60;99.90
31799;DHT22;18374;51.136;3.502;2023-03-15T01:41:23;3.60;99.90
31799;DHT22;18374;51.136;3.502;2023-03-15T01:43:52;3.60;99.90
31799;DHT22;18374;51.136;3.502;2023-03-15T01:46:33;3.60;99.90
31799;DHT22;18374;51.136;3.502;2023-03-15T01:49:32;3.60;99.90
31799;DHT22;18374;51.136;3.502;2023-03-15T01:52:08;3.60;99.90
31799;DHT22;18374;51.136;3.502;2023-03-15T01:55:00;3.60;99.90
31799;DHT22;18374;51.136;3.502;2023-03-15T01:57:37;3.60;99.90
31799;DHT22;18374;51.136;3.502;2023-03-15T02:00:12;3.60;99.90
31799;DHT22;18374;51.136;3.502;2023-03-15T02:03:31;3.60;99.90
31799;DHT22;18374;51.136;3.502;2023-03-15T02:06:06;3.60;99.90
31799;DHT22;18374;51.136;3.502;2023-03-15T02:08:49;3.50;99.90
31799;DHT22;18374;51.136;3.502;2023-03-15T02:11:21;3.50;99.90
31799;DHT22;18374;51.136;3.502;2023-03-15T02:13:53;3.40;99.90
31799;DHT22;18374;51.136;3.502;2023-03-15T02:16:23;3.30;99.90
31799;DHT22;18374;51.136;3.502;2023-03-15T02:19:05;3.20;99.90
31799;DHT22;18374;51.136;3.502;2023-03-15T02:21:49;3.10;99.90
31799;DHT22;18374;51.136;3.502;2023-03-15T02:24:46;3.00;99.90
31799;DHT22;18374;51.136;3.502;2023-03-15T02:27:24;3.10;99.90
31799;DHT22;18374;51.136;3.502;2023-03-15T02:29:55;3.10;99.90
31799;DHT22;18374;51.136;3.502;2023-03-15T02:32:23;3.00;99.90
31799;DHT22;18374;51.136;3.502;2023-03-15T02:34:51;3.10;99.90
31799;DHT22;18374;51.136;3.502;2023-03-15T02:37:18;3.10;99.90
31799;DHT22;18374;51.136;3.502;2023-03-15T02:39:47;3.10;99.90
31799;DHT22;18374;51.136;3.502;2023-03-15T02:42:15;3.10;99.90
31799;DHT22;18374;51.136;3.502;2023-03-15T02:44:45;3.10;99.90
31799;DHT22;18374;51.136;3.502;2023-03-15T02:47:20;3.10;99.90
31799;DHT22;18374;51.136;3.502;2023-03-15T02:49:52;3.10;99.90
31799;DHT22;18374;51.136;3.502;2023-03-15T02:52:21;3.10;99.90
31799;DHT22;18374;51.136;3.502;2023-03-15T02:54:49;3.10;99.90
31799;DHT22;18374;51.136;3.502;2023-03-15T02:57:18;3.10;99.90
31799;DHT22;18374;51.136;3.502;2023-03-15T02:59:46;3.10;99.90
31799;DHT22;18374;51.136;3.502;2023-03-15T03:02:18;3.10;99.90
31799;DHT22;18374;51.136;3.502;2023-03-15T03:04:46;3.20;99.90
31799;DHT22;18374;51.136;3.502;2023-03-15T03:07:14;3.10;99.90
31799;DHT22;18374;51.136;3.502;2023-03-15T03:09:53;3.10;99.90
31799;DHT22;18374;51.136;3.502;2023-03-15T03:12:22;3.10;99.90
31799;DHT22;18374;51.136;3.502;2023-03-15T03:14:49;3.10;99.90
31799;DHT22;18374;51.136;3.502;2023-03-15T03:17:22;3.10;99.90
31799;DHT22;18374;51.136;3.502;2023-03-15T03:19:50;3.10;99.90
31799;DHT22;18374;51.136;3.502;2023-03-15T03:22:24;3.10;99.90
31799;DHT22;18374;51.136;3.502;2023-03-15T03:24:51;3.00;99.90
31799;DHT22;18374;51.136;3.502;2023-03-15T03:27:19;3.00;99.90
31799;DHT22;18374;51.136;3.502;2023-03-15T03:29:49;2.90;99.90
31799;DHT22;18374;51.136;3.502;2023-03-15T03:32:16;2.90;99.90
31799;DHT22;18374;51.136;3.502;2023-03-15T03:34:44;2.80;99.90
31799;DHT22;18374;51.136;3.502;2023-03-15T03:37:19;2.80;99.90
31799;DHT22;18374;51.136;3.502;2023-03-15T03:40:00;2.70;99.90
31799;DHT22;18374;51.136;3.502;2023-03-15T03:42:28;2.70;99.90
31799;DHT22;18374;51.136;3.502;2023-03-15T03:44:56;2.70;99.90
31799;DHT22;18374;51.136;3.502;2023-03-15T03:47:31;2.60;99.90
31799;DHT22;18374;51.136;3.502;2023-03-15T03:50:00;2.50;99.90
31799;DHT22;18374;51.136;3.502;2023-03-15T03:52:28;2.40;99.90
31799;DHT22;18374;51.136;3.502;2023-03-15T03:55:04;2.40;99.90
31799;DHT22;18374;51.136;3.502;2023-03-15T03:57:32;2.40;99.90
31799;DHT22;18374;51.136;3.502;2023-03-15T04:00:00;2.40;99.90
31799;DHT22;18374;51.136;3.502;2023-03-15T04:02:30;2.30;99.90
31799;DHT22;18374;51.136;3.502;2023-03-15T04:05:02;2.30;99.90
31799;DHT22;18374;51.136;3.502;2023-03-15T04:07:30;2.30;99.90
31799;DHT22;18374;51.136;3.502;2023-03-15T04:09:57;2.30;99.90
31799;DHT22;18374;51.136;3.502;2023-03-15T04:12:26;2.20;99.90
31799;DHT22;18374;51.136;3.502;2023-03-15T04:14:55;2.20;99.90
31799;DHT22;18374;51.136;3.502;2023-03-15T04:17:27;2.20;99.90
31799;DHT22;18374;51.136;3.502;2023-03-15T04:19:54;2.10;99.90
31799;DHT22;18374;51.136;3.502;2023-03-15T04:22:27;2.10;99.90
31799;DHT22;18374;51.136;3.502;2023-03-15T04:25:24;2.10;99.90
31799;DHT22;18374;51.136;3.502;2023-03-15T04:28:11;2.00;99.90
31799;DHT22;18374;51.136;3.502;2023-03-15T04:31:02;2.00;99.90
31799;DHT22;18374;51.136;3.502;2023-03-15T04:33:49;1.80;99.90
31799;DHT22;18374;51.136;3.502;2023-03-15T04:36:30;1.70;99.90
31799;DHT22;18374;51.136;3.502;2023-03-15T04:39:16;1.70;99.90
31799;DHT22;18374;51.136;3.502;2023-03-15T04:42:00;1.70;99.90
31799;DHT22;18374;51.136;3.502;2023-03-15T04:45:02;1.70;99.90
31799;DHT22;18374;51.136;3.502;2023-03-15T04:47:50;1.60;99.90
31799;DHT22;18374;51.136;3.502;2023-03-15T04:50:36;1.60;99.90
31799;DHT22;18374;51.136;3.502;2023-03-15T04:53:23;1.60;99.90
31799;DHT22;18374;51.136;3.502;2023-03-15T04:56:08;1.60;99.90
31799;DHT22;18374;51.136;3.502;2023-03-15T04:58:45;1.50;99.90
31799;DHT22;18374;51.136;3.502;2023-03-15T05:01:32;1.50;99.90
31799;DHT22;18374;51.136;3.502;2023-03-15T05:04:15;1.50;99.90
31799;DHT22;18374;51.136;3.502;2023-03-15T05:06:49;1.50;99.90
31799;DHT22;18374;51.136;3.502;2023-03-15T05:09:55;1.50;99.90
31799;DHT22;18374;51.136;3.502;2023-03-15T05:12:39;1.50;99.90
31799;DHT22;18374;51.136;3.502;2023-03-15T05:15:32;1.60;99.90
31799;DHT22;18374;51.136;3.502;2023-03-15T05:18:12;1.50;99.90
31799;DHT22;18374;51.136;3.502;2023-03-15T05:21:03;1.50;99.90
31799;DHT22;18374;51.136;3.502;2023-03-15T05:23:40;1.40;99.90
31799;DHT22;18374;51.136;3.502;2023-03-15T05:26:17;1.40;99.90
31799;DHT22;18374;51.136;3.502;2023-03-15T05:29:04;1.30;99.90
31799;DHT22;18374;51.136;3.502;2023-03-15T05:31:41;1.30;99.90
31799;DHT22;18374;51.136;3.502;2023-03-15T05:34:25;1.30;99.90
31799;DHT22;18374;51.136;3.502;2023-03-15T05:36:56;1.30;99.90
31799;DHT22;18374;51.136;3.502;2023-03-15T05:39:34;1.30;99.90
31799;DHT22;18374;51.136;3.502;2023-03-15T05:42:21;1.30;99.90
31799;DHT22;18374;51.136;3.502;2023-03-15T05:45:15;1.20;99.90
31799;DHT22;18374;51.136;3.502;2023-03-15T05:47:43;1.20;99.90
31799;DHT22;18374;51.136;3.502;2023-03-15T05:50:29;1.20;99.90
31799;DHT22;18374;51.136;3.502;2023-03-15T05:53:17;1.10;99.90
31799;DHT22;18374;51.136;3.502;2023-03-15T05:55:47;1.10;99.90
31799;DHT22;18374;51.136;3.502;2023-03-15T05:58:33;1.00;99.90
31799;DHT22;18374;51.136;3.502;2023-03-15T06:01:07;1.00;99.90
31799;DHT22;18374;51.136;3.502;2023-03-15T06:03:59;1.10;99.90
31799;DHT22;18374;51.136;3.502;2023-03-15T06:06:30;1.10;99.90
31799;DHT22;18374;51.136;3.502;2023-03-15T06:09:01;1.10;99.90
31799;DHT22;18374;51.136;3.502;2023-03-15T06:11:29;1.10;99.90
31799;DHT22;18374;51.136;3.502;2023-03-15T06:13:59;1.10;99.90
31799;DHT22;18374;51.136;3.502;2023-03-15T06:16:39;1.00;99.90
31799;DHT22;18374;51.136;3.502;2023-03-15T06:19:08;1.00;99.90
31799;DHT22;18374;51.136;3.502;2023-03-15T06:21:35;1.00;99.90
31799;DHT22;18374;51.136;3.502;2023-03-15T06:24:09;1.00;99.90
31799;DHT22;18374;51.136;3.502;2023-03-15T06:26:38;1.00;99.90
31799;DHT22;18374;51.136;3.502;2023-03-15T06:29:06;0.90;99.90
31799;DHT22;18374;51.136;3.502;2023-03-15T06:31:34;0.90;99.90
31799;DHT22;18374;51.136;3.502;2023-03-15T06:34:05;1.00;99.90
31799;DHT22;18374;51.136;3.502;2023-03-15T06:36:34;1.00;99.90
31799;DHT22;18374;51.136;3.502;2023-03-15T06:39:03;1.10;99.90
31799;DHT22;18374;51.136;3.502;2023-03-15T06:41:31;1.00;99.90
31799;DHT22;18374;51.136;3.502;2023-03-15T06:44:14;1.10;99.90
31799;DHT22;18374;51.136;3.502;2023-03-15T06:46:42;1.10;99.90
31799;DHT22;18374;51.136;3.502;2023-03-15T06:49:09;1.10;99.90
31799;DHT22;18374;51.136;3.502;2023-03-15T06:51:37;1.20;99.90
31799;DHT22;18374;51.136;3.502;2023-03-15T06:54:05;1.30;99.90
31799;DHT22;18374;51.136;3.502;2023-03-15T06:56:34;1.30;99.90
31799;DHT22;18374;51.136;3.502;2023-03-15T06:59:03;1.40;99.90
31799;DHT22;18374;51.136;3.502;2023-03-15T07:01:31;1.40;99.90
31799;DHT22;18374;51.136;3.502;2023-03-15T07:03:59;1.50;99.90
31799;DHT22;18374;51.136;3.502;2023-03-15T07:06:27;1.60;99.90
31799;DHT22;18374;51.136;3.502;2023-03-15T07:08:55;1.60;99.90
31799;DHT22;18374;51.136;3.502;2023-03-15T07:11:23;1.70;99.90
31799;DHT22;18374;51.136;3.502;2023-03-15T07:13:51;1.80;99.90
31799;DHT22;18374;51.136;3.502;2023-03-15T07:16:19;1.90;99.90
31799;DHT22;18374;51.136;3.502;2023-03-15T07:18:46;1.90;99.90
31799;DHT22;18374;51.136;3.502;2023-03-15T07:21:14;2.00;99.90
31799;DHT22;18374;51.136;3.502;2023-03-15T07:23:42;2.10;99.90
31799;DHT22;18374;51.136;3.502;2023-03-15T07:26:10;2.20;99.90
31799;DHT22;18374;51.136;3.502;2023-03-15T07:28:38;2.40;99.90
31799;DHT22;18374;51.136;3.502;2023-03-15T07:31:05;2.50;99.90
31799;DHT22;18374;51.136;3.502;2023-03-15T07:33:33;2.60;99.90
31799;DHT22;18374;51.136;3.502;2023-03-15T07:36:04;2.70;99.90
31799;DHT22;18374;51.136;3.502;2023-03-15T07:38:33;2.80;99.90
31799;DHT22;18374;51.136;3.502;2023-03-15T07:41:05;2.90;99.90
31799;DHT22;18374;51.136;3.502;2023-03-15T07:43:36;3.00;99.90
31799;DHT22;18374;51.136;3.502;2023-03-15T07:46:10;3.10;99.90
31799;DHT22;18374;51.136;3.502;2023-03-15T07:48:38;3.20;99.90
31799;DHT22;18374;51.136;3.502;2023-03-15T07:51:06;3.30;99.90
31799;DHT22;18374;51.136;3.502;2023-03-15T07:53:34;3.50;99.90
31799;DHT22;18374;51.136;3.502;2023-03-15T07:56:01;3.60;99.90
31799;DHT22;18374;51.136;3.502;2023-03-15T07:58:30;3.60;99.90
31799;DHT22;18374;51.136;3.502;2023-03-15T08:00:57;3.80;99.90
31799;DHT22;18374;51.136;3.502;2023-03-15T08:03:25;3.90;99.90
31799;DHT22;18374;51.136;3.502;2023-03-15T08:05:54;4.00;99.90
31799;DHT22;18374;51.136;3.502;2023-03-15T08:08:22;4.10;99.90
31799;DHT22;18374;51.136;3.502;2023-03-15T08:10:50;4.10;99.90
31799;DHT22;18374;51.136;3.502;2023-03-15T08:13:18;4.10;99.90
31799;DHT22;18374;51.136;3.502;2023-03-15T08:15:46;4.20;99.90
31799;DHT22;18374;51.136;3.502;2023-03-15T08:18:14;4.30;99.90
31799;DHT22;18374;51.136;3.502;2023-03-15T08:20:41;4.50;99.90
31799;DHT22;18374;51.136;3.502;2023-03-15T08:23:10;4.60;99.90
31799;DHT22;18374;51.136;3.502;2023-03-15T08:25:43;4.80;99.90
31799;DHT22;18374;51.136;3.502;2023-03-15T08:28:11;4.80;99.90
31799;DHT22;18374;51.136;3.502;2023-03-15T08:30:39;4.80;99.90
31799;DHT22;18374;51.136;3.502;2023-03-15T08:33:08;5.00;99.90
31799;DHT22;18374;51.136;3.502;2023-03-15T08:35:36;5.10;99.90
31799;DHT22;18374;51.136;3.502;2023-03-15T08:38:04;5.10;99.90
31799;DHT22;18374;51.136;3.502;2023-03-15T08:40:31;5.30;99.90
31799;DHT22;18374;51.136;3.502;2023-03-15T08:42:59;5.30;99.90
31799;DHT22;18374;51.136;3.502;2023-03-15T08:45:27;5.50;99.90
31799;DHT22;18374;51.136;3.502;2023-03-15T08:47:58;5.60;99.90
31799;DHT22;18374;51.136;3.502;2023-03-15T08:50:27;5.60;99.90
31799;DHT22;18374;51.136;3.502;2023-03-15T08:52:58;5.80;99.90
31799;DHT22;18374;51.136;3.502;2023-03-15T08:55:25;5.80;99.90
31799;DHT22;18374;51.136;3.502;2023-03-15T08:57:53;5.80;99.90
31799;DHT22;18374;51.136;3.502;2023-03-15T09:00:21;5.80;99.90
31799;DHT22;18374;51.136;3.502;2023-03-15T09:02:51;5.80;99.90
31799;DHT22;18374;51.136;3.502;2023-03-15T09:05:23;5.80;99.90
31799;DHT22;18374;51.136;3.502;2023-03-15T09:07:51;5.90;99.90
31799;DHT22;18374;51.136;3.502;2023-03-15T09:10:20;6.20;99.90
31799;DHT22;18374;51.136;3.502;2023-03-15T09:12:50;6.50;99.90
31799;DHT22;18374;51.136;3.502;2023-03-15T09:15:20;6.60;99.90
31799;DHT22;18374;51.136;3.502;2023-03-15T09:17:49;6.50;99.90
31799;DHT22;18374;51.136;3.502;2023-03-15T09:20:18;6.40;99.90
31799;DHT22;18374;51.136;3.502;2023-03-15T09:22:54;6.20;99.90
31799;DHT22;18374;51.136;3.502;2023-03-15T09:25:24;6.40;99.90
31799;DHT22;18374;51.136;3.502;2023-03-15T09:27:52;6.50;99.90
31799;DHT22;18374;51.136;3.502;2023-03-15T09:30:21;6.90;99.90
31799;DHT22;18374;51.136;3.502;2023-03-15T09:32:49;6.80;99.90
31799;DHT22;18374;51.136;3.502;2023-03-15T09:35:19;7.00;99.90
31799;DHT22;18374;51.136;3.502;2023-03-15T09:37:48;7.20;99.90
31799;DHT22;18374;51.136;3.502;2023-03-15T09:48:36;7.00;99.90
31799;DHT22;18374;51.136;3.502;2023-03-15T09:54:31;7.50;99.90
31799;DHT22;18374;51.136;3.502;2023-03-15T09:57:18;7.70;99.90
31799;DHT22;18374;51.136;3.502;2023-03-15T09:59:51;8.00;99.90
31799;DHT22;18374;51.136;3.502;2023-03-15T10:02:28;8.20;99.90
31799;DHT22;18374;51.136;3.502;2023-03-15T10:05:03;8.50;99.90
31799;DHT22;18374;51.136;3.502;2023-03-15T10:07:34;8.60;99.90
31799;DHT22;18374;51.136;3.502;2023-03-15T10:10:02;8.80;99.90
31799;DHT22;18374;51.136;3.502;2023-03-15T10:12:35;8.90;99.90
31799;DHT22;18374;51.136;3.502;2023-03-15T10:18:31;9.30;99.90
31799;DHT22;18374;51.136;3.502;2023-03-15T10:26:35;10.10;99.90
31799;DHT22;18374;51.136;3.502;2023-03-15T10:29:13;10.10;99.90
31799;DHT22;18374;51.136;3.502;2023-03-15T10:31:44;10.10;99.90
31799;DHT22;18374;51.136;3.502;2023-03-15T10:34:14;10.30;99.90
31799;DHT22;18374;51.136;3.502;2023-03-15T10:36:45;10.40;99.90
31799;DHT22;18374;51.136;3.502;2023-03-15T10:39:16;10.10;99.90
31799;DHT22;18374;51.136;3.502;2023-03-15T10:41:47;10.20;99.90
31799;DHT22;18374;51.136;3.502;2023-03-15T10:44:19;10.50;99.90
31799;DHT22;18374;51.136;3.502;2023-03-15T10:47:12;10.60;99.90
31799;DHT22;18374;51.136;3.502;2023-03-15T10:49:58;10.80;99.90
31799;DHT22;18374;51.136;3.502;2023-03-15T10:55:25;10.70;99.90
31799;DHT22;18374;51.136;3.502;2023-03-15T10:57:59;10.60;99.90
31799;DHT22;18374;51.136;3.502;2023-03-15T11:00:50;10.70;99.90
31799;DHT22;18374;51.136;3.502;2023-03-15T11:03:29;10.80;99.90
31799;DHT22;18374;51.136;3.502;2023-03-15T11:05:58;10.70;99.90
31799;DHT22;18374;51.136;3.502;2023-03-15T11:08:38;10.70;99.90
31799;DHT22;18374;51.136;3.502;2023-03-15T11:11:07;10.50;99.90
31799;DHT22;18374;51.136;3.502;2023-03-15T11:13:38;10.30;99.90
31799;DHT22;18374;51.136;3.502;2023-03-15T11:18:45;10.50;99.90
31799;DHT22;18374;51.136;3.502;2023-03-15T11:21:16;10.50;99.90
31799;DHT22;18374;51.136;3.502;2023-03-15T11:23:48;10.70;99.90
31799;DHT22;18374;51.136;3.502;2023-03-15T11:26:22;10.60;99.90
31799;DHT22;18374;51.136;3.502;2023-03-15T11:29:03;10.50;99.90
31799;DHT22;18374;51.136;3.502;2023-03-15T11:31:34;10.20;99.90
31799;DHT22;18374;51.136;3.502;2023-03-15T11:34:16;9.90;99.90
31799;DHT22;18374;51.136;3.502;2023-03-15T11:36:55;10.10;99.90
31799;DHT22;18374;51.136;3.502;2023-03-15T11:39:45;10.20;99.90
31799;DHT22;18374;51.136;3.502;2023-03-15T11:42:47;10.40;99.90
31799;DHT22;18374;51.136;3.502;2023-03-15T11:51:10;10.40;99.90
31799;DHT22;18374;51.136;3.502;2023-03-15T11:53:50;10.30;99.90
31799;DHT22;18374;51.136;3.502;2023-03-15T11:56:46;10.20;99.90
31799;DHT22;18374;51.136;3.502;2023-03-15T11:59:38;10.10;99.90
31799;DHT22;18374;51.136;3.502;2023-03-15T12:04:52;10.20;99.90
31799;DHT22;18374;51.136;3.502;2023-03-15T12:17:52;11.60;99.80
31799;DHT22;18374;51.136;3.502;2023-03-15T12:20:49;11.50;99.90
31799;DHT22;18374;51.136;3.502;2023-03-15T12:25:55;11.60;99.40
31799;DHT22;18374;51.136;3.502;2023-03-15T12:31:03;11.70;98.50
31799;DHT22;18374;51.136;3.502;2023-03-15T12:33:44;11.30;94.50
31799;DHT22;18374;51.136;3.502;2023-03-15T12:36:35;11.40;96.70
31799;DHT22;18374;51.136;3.502;2023-03-15T12:41:49;11.40;98.00
31799;DHT22;18374;51.136;3.502;2023-03-15T12:44:25;11.50;97.50
31799;DHT22;18374;51.136;3.502;2023-03-15T12:47:06;11.60;98.00
31799;DHT22;18374;51.136;3.502;2023-03-15T12:49:41;11.30;96.00
31799;DHT22;18374;51.136;3.502;2023-03-15T12:54:53;11.30;96.80
31799;DHT22;18374;51.136;3.502;2023-03-15T12:57:34;11.20;96.00
31799;DHT22;18374;51.136;3.502;2023-03-15T13:00:12;11.30;97.50
31799;DHT22;18374;51.136;3.502;2023-03-15T13:02:49;11.40;98.10
31799;DHT22;18374;51.136;3.502;2023-03-15T13:05:29;11.40;97.30
31799;DHT22;18374;51.136;3.502;2023-03-15T13:10:42;11.40;99.00
31799;DHT22;18374;51.136;3.502;2023-03-15T13:13:42;11.70;97.40
31799;DHT22;18374;51.136;3.502;2023-03-15T13:19:21;12.00;96.70
31799;DHT22;18374;51.136;3.502;2023-03-15T13:27:34;13.20;95.50
31799;DHT22;18374;51.136;3.502;2023-03-15T13:33:23;13.00;94.60
31799;DHT22;18374;51.136;3.502;2023-03-15T13:38:37;12.60;97.70
31799;DHT22;18374;51.136;3.502;2023-03-15T13:41:23;12.60;95.50
31799;DHT22;18374;51.136;3.502;2023-03-15T13:43:57;13.40;95.00
31799;DHT22;18374;51.136;3.502;2023-03-15T13:46:29;13.60;92.60
31799;DHT22;18374;51.136;3.502;2023-03-15T13:48:59;14.10;92.10
31799;DHT22;18374;51.136;3.502;2023-03-15T13:51:35;14.80;92.00
31799;DHT22;18374;51.136;3.502;2023-03-15T13:54:10;15.60;91.00
31799;DHT22;18374;51.136;3.502;2023-03-15T14:00:09;16.10;88.60
31799;DHT22;18374;51.136;3.502;2023-03-15T14:05:22;15.60;89.20
31799;DHT22;18374;51.136;3.502;2023-03-15T14:07:58;14.90;89.80
31799;DHT22;18374;51.136;3.502;2023-03-15T14:13:32;14.30;92.20
31799;DHT22;18374;51.136;3.502;2023-03-15T14:16:04;15.20;89.60
31799;DHT22;18374;51.136;3.502;2023-03-15T14:18:39;16.20;86.70
31799;DHT22;18374;51.136;3.502;2023-03-15T14:23:43;16.50;83.40
31799;DHT22;18374;51.136;3.502;2023-03-15T14:26:29;16.50;84.90
31799;DHT22;18374;51.136;3.502;2023-03-15T14:29:03;16.30;81.00
31799;DHT22;18374;51.136;3.502;2023-03-15T14:31:39;16.70;84.20
31799;DHT22;18374;51.136;3.502;2023-03-15T14:34:20;16.90;81.50
31799;DHT22;18374;51.136;3.502;2023-03-15T14:36:51;16.70;81.30
31799;DHT22;18374;51.136;3.502;2023-03-15T14:39:29;16.60;81.50
31799;DHT22;18374;51.136;3.502;2023-03-15T14:41:57;16.50;82.10
31799;DHT22;18374;51.136;3.502;2023-03-15T14:44:24;16.20;83.00
31799;DHT22;18374;51.136;3.502;2023-03-15T14:46:52;15.90;83.60
31799;DHT22;18374;51.136;3.502;2023-03-15T14:49:25;15.40;81.50
31799;DHT22;18374;51.136;3.502;2023-03-15T14:52:00;15.00;84.50
31799;DHT22;18374;51.136;3.502;2023-03-15T14:54:30;14.90;86.00
31799;DHT22;18374;51.136;3.502;2023-03-15T14:56:59;15.00;85.50
31799;DHT22;18374;51.136;3.502;2023-03-15T14:59:26;15.20;86.80
31799;DHT22;18374;51.136;3.502;2023-03-15T15:01:56;15.00;85.90
31799;DHT22;18374;51.136;3.502;2023-03-15T15:04:31;14.80;88.50
31799;DHT22;18374;51.136;3.502;2023-03-15T15:07:00;14.30;88.40
31799;DHT22;18374;51.136;3.502;2023-03-15T15:09:29;14.20;88.90
31799;DHT22;18374;51.136;3.502;2023-03-15T15:11:57;14.10;87.90
31799;DHT22;18374;51.136;3.502;2023-03-15T15:14:25;14.10;88.90
31799;DHT22;18374;51.136;3.502;2023-03-15T15:16:53;13.70;87.40
31799;DHT22;18374;51.136;3.502;2023-03-15T15:19:21;13.40;90.30
31799;DHT22;18374;51.136;3.502;2023-03-15T15:21:48;13.30;90.60
31799;DHT22;18374;51.136;3.502;2023-03-15T15:24:18;13.10;90.80
31799;DHT22;18374;51.136;3.502;2023-03-15T15:26:47;12.90;90.90
31799;DHT22;18374;51.136;3.502;2023-03-15T15:29:15;13.10;92.30
31799;DHT22;18374;51.136;3.502;2023-03-15T15:31:44;13.20;92.20
31799;DHT22;18374;51.136;3.502;2023-03-15T15:34:12;13.30;92.00
31799;DHT22;18374;51.136;3.502;2023-03-15T15:36:42;13.20;91.70
31799;DHT22;18374;51.136;3.502;2023-03-15T15:39:23;13.20;91.80
31799;DHT22;18374;51.136;3.502;2023-03-15T15:41:54;12.90;91.30
31799;DHT22;18374;51.136;3.502;2023-03-15T15:44:23;12.60;92.00
31799;DHT22;18374;51.136;3.502;2023-03-15T15:46:53;12.30;92.20
31799;DHT22;18374;51.136;3.502;2023-03-15T15:49:21;12.10;93.60
31799;DHT22;18374;51.136;3.502;2023-03-15T15:51:49;12.00;94.40
31799;DHT22;18374;51.136;3.502;2023-03-15T15:54:25;11.80;93.40
31799;DHT22;18374;51.136;3.502;2023-03-15T15:56:56;11.60;94.70
31799;DHT22;18374;51.136;3.502;2023-03-15T15:59:25;11.50;94.60
31799;DHT22;18374;51.136;3.502;2023-03-15T16:01:54;11.40;94.90
31799;DHT22;18374;51.136;3.502;2023-03-15T16:04:29;11.20;95.10
31799;DHT22;18374;51.136;3.502;2023-03-15T16:06:59;11.00;94.70
31799;DHT22;18374;51.136;3.502;2023-03-15T16:09:30;10.80;94.70
31799;DHT22;18374;51.136;3.502;2023-03-15T16:12:01;10.70;95.30
31799;DHT22;18374;51.136;3.502;2023-03-15T16:14:31;10.60;95.30
31799;DHT22;18374;51.136;3.502;2023-03-15T16:16:59;10.60;94.70
31799;DHT22;18374;51.136;3.502;2023-03-15T16:19:27;10.50;95.30
31799;DHT22;18374;51.136;3.502;2023-03-15T16:21:55;10.40;95.10
31799;DHT22;18374;51.136;3.502;2023-03-15T16:24:26;10.40;95.50
31799;DHT22;18374;51.136;3.502;2023-03-15T16:27:06;10.40;95.10
31799;DHT22;18374;51.136;3.502;2023-03-15T16:29:40;10.30;95.90
31799;DHT22;18374;51.136;3.502;2023-03-15T16:32:14;10.30;96.40
31799;DHT22;18374;51.136;3.502;2023-03-15T16:34:56;10.20;95.60
31799;DHT22;18374;51.136;3.502;2023-03-15T16:37:28;10.20;96.20
31799;DHT22;18374;51.136;3.502;2023-03-15T16:39:59;10.20;95.80
31799;DHT22;18374;51.136;3.502;2023-03-15T16:42:28;10.20;95.90
31799;DHT22;18374;51.136;3.502;2023-03-15T16:44:55;10.10;96.40
31799;DHT22;18374;51.136;3.502;2023-03-15T16:47:23;10.10;97.30
31799;DHT22;18374;51.136;3.502;2023-03-15T16:49:51;10.10;96.60
31799;DHT22;18374;51.136;3.502;2023-03-15T16:52:19;10.10;97.40
31799;DHT22;18374;51.136;3.502;2023-03-15T16:54:46;10.10;98.00
31799;DHT22;18374;51.136;3.502;2023-03-15T16:57:19;10.00;97.20
31799;DHT22;18374;51.136;3.502;2023-03-15T16:59:49;10.00;97.50
31799;DHT22;18374;51.136;3.502;2023-03-15T17:02:25;9.90;98.40
31799;DHT22;18374;51.136;3.502;2023-03-15T17:04:54;9.90;97.70
31799;DHT22;18374;51.136;3.502;2023-03-15T17:07:30;9.80;98.00
31799;DHT22;18374;51.136;3.502;2023-03-15T17:10:08;9.80;98.40
31799;DHT22;18374;51.136;3.502;2023-03-15T17:12:40;9.70;98.50
31799;DHT22;18374;51.136;3.502;2023-03-15T17:15:09;9.70;98.90
31799;DHT22;18374;51.136;3.502;2023-03-15T17:17:37;9.60;98.60
31799;DHT22;18374;51.136;3.502;2023-03-15T17:20:06;9.50;98.90
31799;DHT22;18374;51.136;3.502;2023-03-15T17:22:40;9.40;99.30
31799;DHT22;18374;51.136;3.502;2023-03-15T17:25:09;9.40;99.50
31799;DHT22;18374;51.136;3.502;2023-03-15T17:27:39;9.30;99.40
31799;DHT22;18374;51.136;3.502;2023-03-15T17:30:21;9.20;99.80
31799;DHT22;18374;51.136;3.502;2023-03-15T17:32:51;9.10;99.90
31799;DHT22;18374;51.136;3.502;2023-03-15T17:35:28;9.10;99.90
31799;DHT22;18374;51.136;3.502;2023-03-15T17:38:02;9.10;99.70
31799;DHT22;18374;51.136;3.502;2023-03-15T17:40:34;9.00;99.90
31799;DHT22;18374;51.136;3.502;2023-03-15T17:43:03;9.00;99.90
31799;DHT22;18374;51.136;3.502;2023-03-15T17:45:32;8.80;99.90